Jamaica Bay — V7MQ7 — position and weather

sailwx.info

Track history (hours):
 
Tides and Currents Weather Stations Pressure Air Temp Water Temp Dewpoint Dewpoint Depression Visibility Wind Speed Wind Dir Waves Ship Positions

Jamaica Bay

Last reported at 2018-Jan-24 12:51 UTC. Time now 2018-Feb-24 06:37 UTC.
Position N 14°23' W 061°07'.
Warning: this ship's position is 30 days out of date.

Length 60 m; draft 3.4 m.

Type: Pleasure craft. MMSI: 538080029.

Date/timePositionNaut miles runAvg speedWind from/ knotsBaromVisibWave heightAir tempDewpointWater temp
2018-Jan-24 12:51N 14°23' W 061°07'410.5
2018-Jan-24 12:29N 14°26' W 061°08'510.8
2018-Jan-24 12:00N 14°31' W 061°10'7910.5
2018-Jan-24 04:27N 15°45' W 061°40'510.5
2018-Jan-24 04:01N 15°49' W 061°43'810.6
2018-Jan-24 03:18N 15°56' W 061°46'3610.7
2018-Jan-23 23:56N 16°25' W 062°08'510.3
2018-Jan-23 23:29N 16°29' W 062°11'510.2
2018-Jan-23 23:00N 16°33' W 062°14'611.5
2018-Jan-23 22:30N 16°37' W 062°18'612.2
2018-Jan-23 22:01N 16°42' W 062°22'612.3
2018-Jan-23 21:31N 16°46' W 062°26'1912.1
2018-Jan-23 19:56N 17°02' W 062°38'511.9
2018-Jan-23 19:29N 17°06' W 062°41'612.2
2018-Jan-23 19:00N 17°11' W 062°44'3311.6
2018-Jan-23 16:09N 17°43' W 062°54'  
2018-Jan-18 20:16N 17°55' W 062°56'412.8
2018-Jan-18 19:57N 17°56' W 062°60'612.9
2018-Jan-18 19:29N 17°57' W 063°06'612.8
2018-Jan-18 19:00N 17°58' W 063°12'712.6
2018-Jan-18 18:29N 17°59' W 063°19'612.5
2018-Jan-18 18:00N 18°01' W 063°25'712.6
2018-Jan-18 17:29N 18°02' W 063°32'  
Track history (hours):
 
Tides and Currents Weather Stations Pressure Air Temp Water Temp Dewpoint Dewpoint Depression Visibility Wind Speed Wind Dir Waves Ship Positions

Jamaica Bay

Last reported at 2018-Jan-24 12:51 UTC. Time now 2018-Feb-24 06:37 UTC.
Position N 14°23' W 061°07'.
Warning: this ship's position is 30 days out of date.

Length 60 m; draft 3.4 m.

Type: Pleasure craft. MMSI: 538080029.

Date/timePositionNaut miles runAvg speedWind from/ knotsBaromVisibWave heightAir tempDewpointWater temp
2018-Jan-24 12:51N 14°23' W 061°07'410.5
2018-Jan-24 12:29N 14°26' W 061°08'510.8
2018-Jan-24 12:00N 14°31' W 061°10'7910.5
2018-Jan-24 04:27N 15°45' W 061°40'510.5
2018-Jan-24 04:01N 15°49' W 061°43'810.6
2018-Jan-24 03:18N 15°56' W 061°46'3610.7
2018-Jan-23 23:56N 16°25' W 062°08'510.3
2018-Jan-23 23:29N 16°29' W 062°11'510.2
2018-Jan-23 23:00N 16°33' W 062°14'611.5
2018-Jan-23 22:30N 16°37' W 062°18'612.2
2018-Jan-23 22:01N 16°42' W 062°22'612.3
2018-Jan-23 21:31N 16°46' W 062°26'1912.1
2018-Jan-23 19:56N 17°02' W 062°38'511.9
2018-Jan-23 19:29N 17°06' W 062°41'612.2
2018-Jan-23 19:00N 17°11' W 062°44'3311.6
2018-Jan-23 16:09N 17°43' W 062°54'  
2018-Jan-18 20:16N 17°55' W 062°56'412.8
2018-Jan-18 19:57N 17°56' W 062°60'612.9
2018-Jan-18 19:29N 17°57' W 063°06'612.8
2018-Jan-18 19:00N 17°58' W 063°12'712.6
2018-Jan-18 18:29N 17°59' W 063°19'612.5
2018-Jan-18 18:00N 18°01' W 063°25'712.6
2018-Jan-18 17:29N 18°02' W 063°32'  

Dump ship's entire track history